This is the latest recevied weather packets stored in our database for station/object KM4RT-13. If no packets are shown the sender has not sent any weather packets the latest 1 day(s).
| Time | Temp. | Humidity | Pressure | Rain* | Wind** | Luminosity | Snow |
|---|---|---|---|---|---|---|---|
| 1778050921 | 12.22° C | 99% | 1005.5 hPa | 3.05 mm | - | 0 W/m² | - |
| 1778050315 | 12.22° C | 99% | 1006.2 hPa | 15.49 mm | - | 0 W/m² | - |
| 1778050012 | 12.78° C | 99% | 1006.3 hPa | 8.89 mm | - | 0 W/m² | - |
| 1778049708 | 12.78° C | 99% | 1006.1 hPa | 4.32 mm | - | 0 W/m² | - |
| 1778049406 | 12.78° C | 99% | 1006.1 hPa | 3.05 mm | - | 0 W/m² | - |
| 1778048801 | 12.78° C | 99% | 1005.4 hPa | 13.72 mm | - | 0 W/m² | - |
| 1778047891 | 13.89° C | 99% | 1005.6 hPa | 66.55 mm | - | 0 W/m² | - |
| 1778046680 | 16.67° C | 94% | 1004.7 hPa | 1.78 mm | - | 0 W/m² | - |
| 1778045470 | 20.56° C | 92% | 1003.2 hPa | 0 mm | - | 0 W/m² | - |
| 1778044865 | 20° C | 96% | 1003.8 hPa | 0 mm | - | 0 W/m² | - |
| 1778044258 | 20° C | 96% | 1003.8 hPa | 0 mm | - | 0 W/m² | - |
| 1778043956 | 20° C | 96% | 1003.9 hPa | 0 mm | - | 0 W/m² | - |
| 1778043654 | 20° C | 95% | 1003.9 hPa | 0 mm | - | 0 W/m² | - |
| 1778043350 | 20° C | 95% | 1003.8 hPa | 0 mm | - | 0 W/m² | - |
| 1778042441 | 20° C | 94% | 1004.2 hPa | 0 mm | - | 0 W/m² | - |
| 1778042138 | 20.56° C | 93% | 1004.5 hPa | 0 mm | - | 0 W/m² | - |
| 1778041233 | 20° C | 94% | 1004.1 hPa | 0 mm | - | 0 W/m² | - |
| 1778040326 | 20° C | 94% | 1004.6 hPa | 0 mm | - | 0 W/m² | - |
| 1778040021 | 20.56° C | 93% | 1004.7 hPa | 0 mm | - | 0 W/m² | - |
| 1778039415 | 20.56° C | 93% | 1004.8 hPa | 0 mm | - | 0 W/m² | - |
| 1778039113 | 20.56° C | 93% | 1004.9 hPa | 0 mm | - | 0 W/m² | - |
| 1778038507 | 20.56° C | 93% | 1004.9 hPa | 0 mm | - | 0 W/m² | - |
| 1778038204 | 20.56° C | 92% | 1004.9 hPa | 0 mm | - | 0 W/m² | - |
| 1778037901 | 20.56° C | 92% | 1004.7 hPa | 0 mm | - | 0 W/m² | - |
| 1778037597 | 20.56° C | 92% | 1004.8 hPa | 0 mm | - | 0 W/m² | - |
* Rain latest hour (hover to see other rain measurements)
** Current wind speed in m/s (hover to see current wind gust speed)